createdAt,value
2022-09-15T00:00:31.528Z,25.80
2022-09-15T00:02:58.594Z,25.80
2022-09-15T00:05:25.563Z,25.80
2022-09-15T00:07:52.475Z,25.80
2022-09-15T00:10:19.571Z,25.80
2022-09-15T00:12:46.581Z,25.80
2022-09-15T00:15:14.909Z,25.80
2022-09-15T00:17:43.327Z,25.70
2022-09-15T00:20:10.959Z,25.80
2022-09-15T00:22:38.099Z,25.70
2022-09-15T00:25:06.085Z,25.80
2022-09-15T00:27:33.938Z,25.70
2022-09-15T00:30:01.245Z,25.70
2022-09-15T00:32:29.491Z,25.70
2022-09-15T00:34:56.461Z,25.70
2022-09-15T00:37:23.832Z,25.70
2022-09-15T00:39:50.821Z,25.70
2022-09-15T00:42:22.639Z,25.70
2022-09-15T00:44:54.977Z,25.80
2022-09-15T00:47:33.440Z,25.80
2022-09-15T00:50:06.734Z,25.70
2022-09-15T00:52:43.555Z,25.70
2022-09-15T00:55:20.623Z,25.70
2022-09-15T00:57:53.604Z,25.70
2022-09-15T01:00:24.445Z,25.70
2022-09-15T01:02:51.627Z,25.70
2022-09-15T01:05:29.951Z,25.70
2022-09-15T01:08:01.927Z,25.70
2022-09-15T01:10:34.829Z,25.70
2022-09-15T01:13:06.929Z,25.60
2022-09-15T01:15:57.729Z,25.70
2022-09-15T01:18:36.344Z,25.60
2022-09-15T01:21:20.582Z,25.60
2022-09-15T01:23:59.891Z,25.60
2022-09-15T01:27:06.559Z,25.60
2022-09-15T01:30:07.513Z,25.60
2022-09-15T01:33:04.873Z,25.60
2022-09-15T01:35:52.343Z,25.60
2022-09-15T01:38:56.694Z,25.60
2022-09-15T01:41:47.266Z,25.60
2022-09-15T01:44:16.974Z,25.60
2022-09-15T01:46:47.696Z,25.50
2022-09-15T01:49:20.714Z,25.50
2022-09-15T01:51:50.940Z,25.50
2022-09-15T01:54:22.604Z,25.50
2022-09-15T01:56:49.903Z,25.50
2022-09-15T01:59:16.840Z,25.40
2022-09-15T02:01:51.943Z,25.40
2022-09-15T02:04:46.399Z,25.40
2022-09-15T02:07:31.993Z,25.40
2022-09-15T02:10:20.151Z,25.40
2022-09-15T02:13:00.520Z,25.40
2022-09-15T02:15:43.601Z,25.40
2022-09-15T02:18:14.190Z,25.40
2022-09-15T02:20:49.369Z,25.40
2022-09-15T02:23:40.972Z,25.40
2022-09-15T02:26:11.651Z,25.40
2022-09-15T02:28:41.715Z,25.40
2022-09-15T02:31:13.846Z,25.30
2022-09-15T02:33:47.309Z,25.30
2022-09-15T02:36:17.879Z,25.40
2022-09-15T02:38:50.485Z,25.30
2022-09-15T02:41:17.525Z,25.30
2022-09-15T02:43:49.358Z,25.20
2022-09-15T02:46:20.009Z,25.20
2022-09-15T02:48:47.152Z,25.20
2022-09-15T02:51:16.344Z,25.20
2022-09-15T02:53:44.558Z,25.20
2022-09-15T02:56:11.644Z,25.20
2022-09-15T02:58:38.567Z,25.10
2022-09-15T03:01:07.485Z,25.10
2022-09-15T03:03:34.981Z,25.10
2022-09-15T03:06:17.412Z,25.10
2022-09-15T03:08:49.686Z,25.10
2022-09-15T03:11:18.305Z,25.10
2022-09-15T03:13:45.923Z,25.10
2022-09-15T03:16:15.104Z,25.10
2022-09-15T03:18:42.415Z,25.00
2022-09-15T03:21:11.869Z,25.10
2022-09-15T03:23:39.457Z,25.00
2022-09-15T03:26:07.879Z,25.00
2022-09-15T03:28:36.125Z,25.00
2022-09-15T03:31:03.624Z,25.00
2022-09-15T03:33:30.758Z,25.00
2022-09-15T03:35:58.344Z,25.00
2022-09-15T03:38:26.048Z,24.90
2022-09-15T03:41:09.714Z,24.90
2022-09-15T03:43:37.646Z,24.90
2022-09-15T03:46:06.841Z,24.90
2022-09-15T03:48:35.759Z,24.90
2022-09-15T03:51:04.631Z,24.90
2022-09-15T03:53:39.698Z,24.90
2022-09-15T03:56:28.119Z,24.80
2022-09-15T03:58:55.127Z,24.80
2022-09-15T04:01:23.093Z,24.70
2022-09-15T04:03:51.636Z,24.70
2022-09-15T04:06:20.916Z,24.70
2022-09-15T04:08:49.129Z,24.70
2022-09-15T04:11:17.782Z,24.70
2022-09-15T04:13:45.189Z,24.70
2022-09-15T04:16:15.096Z,24.60
2022-09-15T04:18:42.129Z,24.60
2022-09-15T04:21:13.332Z,24.60
2022-09-15T04:23:41.626Z,24.60
2022-09-15T04:26:14.898Z,24.50
2022-09-15T04:28:41.859Z,24.50
2022-09-15T04:31:11.772Z,24.50
2022-09-15T04:33:40.575Z,24.50
2022-09-15T04:36:11.007Z,24.50
2022-09-15T04:38:38.783Z,24.50
2022-09-15T04:41:06.681Z,24.60
2022-09-15T04:43:33.954Z,24.50
2022-09-15T04:46:00.985Z,24.50
2022-09-15T04:48:28.486Z,24.50
2022-09-15T04:51:08.105Z,24.50
2022-09-15T04:53:36.890Z,24.50
2022-09-15T04:56:04.055Z,24.50
2022-09-15T04:58:34.919Z,24.50
2022-09-15T05:01:10.773Z,24.50
2022-09-15T05:03:38.414Z,24.50
2022-09-15T05:06:11.553Z,24.50
2022-09-15T05:08:39.151Z,24.50
2022-09-15T05:11:11.898Z,24.50
2022-09-15T05:13:39.710Z,24.50
2022-09-15T05:16:14.098Z,24.50
2022-09-15T05:18:42.596Z,24.50
2022-09-15T05:21:11.109Z,24.50
2022-09-15T05:23:38.319Z,24.50
2022-09-15T05:26:08.859Z,24.50
2022-09-15T05:28:37.528Z,24.50
2022-09-15T05:31:10.407Z,24.40
2022-09-15T05:33:37.589Z,24.40
2022-09-15T05:36:05.210Z,24.40
2022-09-15T05:38:33.042Z,24.40
2022-09-15T05:41:12.731Z,24.40
2022-09-15T05:43:39.924Z,24.40
2022-09-15T05:46:07.963Z,24.40
2022-09-15T05:48:35.248Z,24.40
2022-09-15T05:51:03.332Z,24.40
2022-09-15T05:53:31.115Z,24.40
2022-09-15T05:56:05.185Z,24.40
2022-09-15T05:58:32.626Z,24.40
2022-09-15T06:01:14.259Z,24.40
2022-09-15T06:03:41.348Z,24.50
2022-09-15T06:06:08.544Z,24.40
2022-09-15T06:08:39.667Z,24.40
2022-09-15T06:11:15.595Z,24.40
2022-09-15T06:13:43.312Z,24.40
2022-09-15T06:16:15.523Z,24.40
2022-09-15T06:18:42.583Z,24.40
2022-09-15T06:21:16.468Z,24.40
2022-09-15T06:23:47.250Z,24.40
2022-09-15T06:26:18.974Z,24.40
2022-09-15T06:28:51.518Z,24.50
2022-09-15T06:31:19.322Z,24.50
2022-09-15T06:33:48.451Z,24.50
2022-09-15T06:36:16.616Z,24.50
2022-09-15T06:38:44.530Z,24.50
2022-09-15T06:41:12.566Z,24.50
2022-09-15T06:43:40.252Z,24.50
2022-09-15T06:46:10.119Z,24.50
2022-09-15T06:48:38.327Z,24.60
2022-09-15T06:51:06.576Z,24.60
2022-09-15T06:53:36.079Z,24.60
2022-09-15T06:56:04.196Z,24.60
2022-09-15T06:58:32.292Z,24.60
2022-09-15T07:01:04.506Z,24.60
2022-09-15T07:03:31.885Z,24.70
2022-09-15T07:05:58.944Z,24.60
2022-09-15T07:08:25.842Z,24.70
2022-09-15T07:10:52.840Z,24.70
2022-09-15T07:13:19.739Z,24.70
2022-09-15T07:15:54.045Z,24.70
2022-09-15T07:18:21.782Z,24.70
2022-09-15T07:20:49.223Z,24.70
2022-09-15T07:23:16.823Z,24.80
2022-09-15T07:25:44.960Z,24.80
2022-09-15T07:28:15.796Z,24.80
2022-09-15T07:30:43.944Z,24.70
2022-09-15T07:33:12.957Z,24.80
2022-09-15T07:35:43.963Z,24.80
2022-09-15T07:38:11.414Z,24.80
2022-09-15T07:40:38.619Z,24.90
2022-09-15T07:43:06.553Z,24.90
2022-09-15T07:45:35.588Z,24.90
2022-09-15T07:48:02.870Z,24.90
2022-09-15T07:50:29.930Z,24.90
2022-09-15T07:52:57.246Z,24.90
2022-09-15T07:55:24.923Z,24.90
2022-09-15T07:58:00.522Z,24.90
2022-09-15T08:00:28.053Z,25.00
2022-09-15T08:02:55.420Z,25.00
2022-09-15T08:05:28.065Z,25.00
2022-09-15T08:07:56.124Z,25.00
2022-09-15T08:10:25.144Z,25.00
2022-09-15T08:12:52.923Z,25.10
2022-09-15T08:15:20.603Z,25.10
2022-09-15T08:17:47.678Z,25.10
2022-09-15T08:20:14.785Z,25.10
2022-09-15T08:22:42.175Z,25.10
2022-09-15T08:25:09.671Z,25.20
2022-09-15T08:27:36.620Z,25.20
2022-09-15T08:30:04.544Z,25.20
2022-09-15T08:32:31.533Z,25.20
2022-09-15T08:34:58.495Z,25.30
2022-09-15T08:37:25.472Z,25.20
2022-09-15T08:39:52.473Z,25.30
2022-09-15T08:42:21.986Z,25.30
2022-09-15T08:44:55.917Z,25.30
2022-09-15T08:47:33.496Z,25.30
2022-09-15T08:50:18.538Z,25.30
2022-09-15T08:52:51.373Z,25.30
2022-09-15T08:55:27.826Z,25.40
2022-09-15T08:57:55.004Z,25.40
2022-09-15T09:00:21.953Z,25.40
2022-09-15T09:03:03.840Z,25.40
2022-09-15T09:05:52.065Z,25.40
2022-09-15T09:09:04.213Z,25.40
2022-09-15T09:11:42.800Z,25.40
2022-09-15T09:14:29.970Z,25.40
2022-09-15T09:17:25.493Z,25.50
2022-09-15T09:20:15.471Z,25.50
2022-09-15T09:22:46.359Z,25.50
2022-09-15T09:25:27.267Z,25.50
2022-09-15T09:27:58.163Z,25.60
2022-09-15T09:30:28.956Z,25.60
2022-09-15T09:33:18.374Z,25.60
2022-09-15T09:35:49.011Z,25.70
2022-09-15T09:38:27.267Z,25.70
2022-09-15T09:40:56.602Z,25.70
2022-09-15T09:43:29.153Z,25.70
2022-09-15T09:45:56.491Z,25.80
2022-09-15T09:48:26.031Z,25.80
2022-09-15T09:50:53.383Z,25.80
2022-09-15T09:53:32.991Z,25.80
2022-09-15T09:56:11.986Z,25.80
2022-09-15T09:58:38.960Z,25.90
2022-09-15T10:01:14.880Z,25.90
2022-09-15T10:03:43.328Z,26.00
2022-09-15T10:06:20.684Z,26.00
2022-09-15T10:09:05.718Z,26.00
2022-09-15T10:11:51.469Z,26.00
2022-09-15T10:14:27.778Z,26.10
2022-09-15T10:17:07.467Z,26.10
2022-09-15T10:19:47.746Z,26.20
2022-09-15T10:22:33.465Z,26.20
2022-09-15T10:25:02.604Z,26.20
2022-09-15T10:27:34.592Z,26.20
2022-09-15T10:30:14.525Z,26.20
2022-09-15T10:32:43.224Z,26.30
2022-09-15T10:35:14.321Z,26.30
2022-09-15T10:38:00.117Z,26.30
2022-09-15T10:40:48.241Z,26.30
2022-09-15T10:43:25.743Z,26.30
2022-09-15T10:46:25.203Z,26.30
2022-09-15T10:49:17.016Z,26.30
2022-09-15T10:51:53.146Z,26.40
2022-09-15T10:54:22.969Z,26.40
2022-09-15T10:56:56.294Z,26.40
2022-09-15T10:59:23.209Z,26.40
2022-09-15T11:02:14.978Z,26.40
2022-09-15T11:04:42.157Z,26.40
2022-09-15T11:07:19.347Z,26.50
2022-09-15T11:09:52.971Z,26.50
2022-09-15T11:12:20.054Z,26.50
2022-09-15T11:15:07.321Z,26.50
2022-09-15T11:17:39.500Z,26.60
2022-09-15T11:20:25.357Z,26.60
2022-09-15T11:23:09.491Z,26.60
2022-09-15T11:25:43.528Z,26.60
2022-09-15T11:28:44.651Z,26.60
2022-09-15T11:31:38.777Z,26.60
2022-09-15T11:34:43.910Z,26.60
2022-09-15T11:37:24.090Z,26.70
2022-09-15T11:40:04.873Z,26.70
2022-09-15T11:42:46.609Z,26.70
2022-09-15T11:45:19.950Z,26.70
2022-09-15T11:47:55.916Z,26.80
2022-09-15T11:50:34.954Z,26.70
2022-09-15T11:53:08.951Z,26.70
2022-09-15T11:55:58.435Z,26.80
2022-09-15T11:58:34.567Z,26.80
2022-09-15T12:01:10.331Z,26.80
2022-09-15T12:04:08.926Z,26.90
2022-09-15T12:06:50.861Z,26.90
2022-09-15T12:09:20.274Z,26.90
2022-09-15T12:11:56.957Z,27.00
2022-09-15T12:14:37.820Z,27.00
2022-09-15T12:17:06.547Z,27.00
2022-09-15T12:19:33.567Z,27.10
2022-09-15T12:22:31.963Z,27.10
2022-09-15T12:25:20.054Z,27.10
2022-09-15T12:28:24.068Z,27.20
2022-09-15T12:31:26.410Z,27.20
2022-09-15T12:34:27.040Z,27.20
2022-09-15T12:36:55.653Z,27.30
2022-09-15T12:39:39.882Z,27.30
2022-09-15T12:42:14.967Z,27.30
2022-09-15T12:44:47.838Z,27.30
2022-09-15T12:47:22.866Z,27.30
2022-09-15T12:49:51.514Z,27.40
2022-09-15T12:52:22.458Z,27.40
2022-09-15T12:54:57.598Z,27.40
2022-09-15T12:57:36.319Z,27.50
2022-09-15T13:00:31.496Z,27.50
2022-09-15T13:02:58.680Z,27.60
2022-09-15T13:05:46.083Z,27.60
2022-09-15T13:08:36.097Z,27.60
2022-09-15T13:11:12.627Z,27.60
2022-09-15T13:13:48.342Z,27.70
2022-09-15T13:16:43.694Z,27.70
2022-09-15T13:19:23.787Z,27.80
2022-09-15T13:22:11.325Z,27.90
2022-09-15T13:24:47.244Z,27.90
2022-09-15T13:27:21.536Z,28.00
2022-09-15T13:30:09.994Z,28.00
2022-09-15T13:32:49.011Z,28.10
2022-09-15T13:35:27.712Z,28.10
2022-09-15T13:38:26.496Z,28.20
2022-09-15T13:41:34.856Z,28.30
2022-09-15T13:44:23.297Z,28.40
2022-09-15T13:47:18.069Z,28.50
2022-09-15T13:49:56.817Z,28.50
2022-09-15T13:52:59.632Z,28.60
2022-09-15T13:55:34.053Z,28.70
2022-09-15T14:01:08.585Z,28.80
2022-09-15T14:03:48.251Z,28.90
2022-09-15T14:06:25.922Z,28.90
2022-09-15T14:08:58.820Z,29.00
2022-09-15T14:11:30.721Z,29.00
2022-09-15T14:13:59.271Z,29.10
2022-09-15T14:16:37.178Z,29.20
2022-09-15T14:19:28.974Z,29.30
2022-09-15T14:21:58.535Z,29.40
2022-09-15T14:24:29.545Z,29.50
2022-09-15T14:27:01.290Z,29.60
2022-09-15T14:29:28.359Z,29.70
2022-09-15T14:32:01.359Z,29.80
2022-09-15T14:34:32.973Z,29.80
2022-09-15T14:37:14.899Z,29.90
2022-09-15T14:39:49.783Z,30.10
2022-09-15T14:42:21.146Z,30.20
2022-09-15T14:47:38.103Z,30.50
2022-09-15T14:50:21.578Z,30.80
2022-09-15T14:52:52.876Z,31.20
2022-09-15T14:55:28.249Z,31.80
2022-09-15T14:58:02.394Z,32.60
2022-09-15T15:00:34.598Z,33.60
2022-09-15T15:03:16.142Z,34.60
2022-09-15T15:06:02.613Z,35.30
2022-09-15T15:08:37.483Z,36.10
2022-09-15T15:11:07.936Z,36.70
2022-09-15T15:13:37.622Z,37.20
2022-09-15T15:16:19.055Z,37.50
2022-09-15T15:18:46.327Z,37.80
2022-09-15T15:21:38.332Z,37.90
2022-09-15T15:24:15.189Z,38.10
2022-09-15T15:26:44.946Z,38.20
2022-09-15T15:29:43.227Z,38.30
2022-09-15T15:32:36.773Z,38.10
2022-09-15T15:35:04.078Z,37.30
2022-09-15T15:37:33.843Z,36.60
2022-09-15T15:40:07.380Z,36.20
2022-09-15T15:42:34.792Z,35.70
2022-09-15T15:45:23.829Z,35.20
2022-09-15T15:47:51.183Z,34.80
2022-09-15T15:50:20.899Z,34.60
2022-09-15T15:52:52.099Z,34.60
2022-09-15T15:55:24.256Z,35.00
2022-09-15T15:57:54.294Z,35.50
2022-09-15T16:00:40.802Z,35.90
2022-09-15T16:03:09.089Z,36.00
2022-09-15T16:05:37.275Z,36.10
2022-09-15T16:08:23.472Z,36.20
2022-09-15T16:10:51.483Z,36.50
2022-09-15T16:13:20.750Z,36.60
2022-09-15T16:15:48.230Z,36.70
2022-09-15T16:18:15.782Z,36.60
2022-09-15T16:20:43.268Z,36.60
2022-09-15T16:23:15.499Z,36.40
2022-09-15T16:25:47.452Z,36.30
2022-09-15T16:28:14.564Z,36.50
2022-09-15T16:30:41.663Z,36.70
2022-09-15T16:33:15.522Z,36.80
2022-09-15T16:35:51.018Z,36.80
2022-09-15T16:38:20.093Z,36.50
2022-09-15T16:40:48.465Z,36.10
2022-09-15T16:43:19.314Z,35.60
2022-09-15T16:45:46.531Z,35.20
2022-09-15T16:48:13.897Z,34.80
2022-09-15T16:50:50.523Z,34.50
2022-09-15T16:53:26.599Z,34.20
2022-09-15T16:55:57.421Z,34.00
2022-09-15T16:58:24.449Z,33.70
2022-09-15T17:00:52.769Z,33.50
2022-09-15T17:03:23.848Z,33.20
2022-09-15T17:05:56.384Z,33.10
2022-09-15T17:08:27.314Z,32.90
2022-09-15T17:10:56.899Z,32.70
2022-09-15T17:13:29.291Z,32.60
2022-09-15T17:15:58.553Z,32.50
2022-09-15T17:18:26.523Z,32.30
2022-09-15T17:20:54.080Z,32.20
2022-09-15T17:23:21.033Z,32.00
2022-09-15T17:25:53.970Z,31.90
2022-09-15T17:28:22.773Z,31.80
2022-09-15T17:30:57.028Z,31.60
2022-09-15T17:33:24.816Z,31.50
2022-09-15T17:35:52.189Z,31.40
2022-09-15T17:38:21.623Z,31.30
2022-09-15T17:40:50.427Z,31.20
2022-09-15T17:43:19.604Z,31.10
2022-09-15T17:45:47.805Z,31.00
2022-09-15T17:48:14.960Z,30.90
2022-09-15T17:50:42.558Z,30.80
2022-09-15T17:53:24.086Z,30.80
2022-09-15T17:55:51.194Z,30.70
2022-09-15T17:58:18.386Z,30.60
2022-09-15T18:00:47.595Z,30.60
2022-09-15T18:03:34.024Z,30.50
2022-09-15T18:06:05.152Z,30.50
2022-09-15T18:08:33.203Z,30.40
2022-09-15T18:11:00.807Z,30.40
2022-09-15T18:13:29.911Z,30.40
2022-09-15T18:15:57.972Z,30.30
2022-09-15T18:18:27.179Z,30.20
2022-09-15T18:20:57.800Z,30.20
2022-09-15T18:23:28.303Z,30.10
2022-09-15T18:25:55.354Z,30.10
2022-09-15T18:28:22.478Z,30.10
2022-09-15T18:30:50.555Z,30.00
2022-09-15T18:33:21.091Z,30.00
2022-09-15T18:35:50.091Z,29.90
2022-09-15T18:38:17.824Z,29.80
2022-09-15T18:40:50.922Z,29.80
2022-09-15T18:43:18.049Z,29.80
2022-09-15T18:45:45.140Z,29.70
2022-09-15T18:48:13.071Z,29.70
2022-09-15T18:50:41.696Z,29.60
2022-09-15T18:53:09.399Z,29.60
2022-09-15T18:55:36.393Z,29.60
2022-09-15T18:58:03.504Z,29.50
2022-09-15T19:00:31.725Z,29.40
2022-09-15T19:03:00.933Z,29.40
2022-09-15T19:05:29.510Z,29.40
2022-09-15T19:07:57.140Z,29.30
2022-09-15T19:10:26.557Z,29.20
2022-09-15T19:12:54.486Z,29.20
2022-09-15T19:15:24.438Z,29.20
2022-09-15T19:17:51.507Z,29.10
2022-09-15T19:20:18.513Z,29.10
2022-09-15T19:22:46.108Z,29.00
2022-09-15T19:25:13.588Z,29.00
2022-09-15T19:27:41.197Z,28.90
2022-09-15T19:30:12.675Z,28.90
2022-09-15T19:32:40.589Z,28.80
2022-09-15T19:35:08.711Z,28.80
2022-09-15T19:37:38.287Z,28.80
2022-09-15T19:40:09.692Z,28.70
2022-09-15T19:42:38.564Z,28.70
2022-09-15T19:45:06.639Z,28.70
2022-09-15T19:47:34.089Z,28.60
2022-09-15T19:50:01.305Z,28.60
2022-09-15T19:52:28.576Z,28.60
2022-09-15T19:54:55.477Z,28.50
2022-09-15T19:57:22.810Z,28.50
2022-09-15T19:59:50.452Z,28.50
2022-09-15T20:02:17.573Z,28.50
2022-09-15T20:07:29.332Z,28.50
2022-09-15T20:09:56.183Z,28.50
2022-09-15T20:12:24.704Z,28.40
2022-09-15T20:14:51.837Z,28.40
2022-09-15T20:17:19.005Z,28.30
2022-09-15T20:19:45.898Z,28.30
2022-09-15T20:22:12.890Z,28.30
2022-09-15T20:24:40.271Z,28.30
2022-09-15T20:27:08.836Z,28.20
2022-09-15T20:29:35.869Z,28.20
2022-09-15T20:32:02.950Z,28.20
2022-09-15T20:34:29.909Z,28.20
2022-09-15T20:36:57.032Z,28.20
2022-09-15T20:39:24.880Z,28.10
2022-09-15T20:41:51.956Z,28.10
2022-09-15T20:44:19.021Z,28.00
2022-09-15T20:46:45.939Z,28.00
2022-09-15T20:49:12.864Z,28.00
2022-09-15T20:51:40.142Z,27.90
2022-09-15T20:54:07.087Z,27.90
2022-09-15T20:56:35.472Z,27.90
2022-09-15T20:59:04.421Z,27.90
2022-09-15T21:01:39.288Z,27.80
2022-09-15T21:04:08.455Z,27.80
2022-09-15T21:06:35.897Z,27.70
2022-09-15T21:09:04.393Z,27.70
2022-09-15T21:11:31.718Z,27.60
2022-09-15T21:13:58.909Z,27.60
2022-09-15T21:16:28.183Z,27.60
2022-09-15T21:18:57.671Z,27.60
2022-09-15T21:21:26.829Z,27.60
2022-09-15T21:23:56.239Z,27.60
2022-09-15T21:26:28.616Z,27.50
2022-09-15T21:28:57.241Z,27.50
2022-09-15T21:31:29.999Z,27.40
2022-09-15T21:33:58.170Z,27.40
2022-09-15T21:36:26.942Z,27.40
2022-09-15T21:38:56.415Z,27.40
2022-09-15T21:41:26.052Z,27.40
2022-09-15T21:43:54.934Z,27.30
2022-09-15T21:46:31.940Z,27.30
2022-09-15T21:49:00.040Z,27.40
2022-09-15T21:51:28.759Z,27.30
2022-09-15T21:53:57.771Z,27.30
2022-09-15T21:56:25.966Z,27.30
2022-09-15T21:58:54.248Z,27.30
2022-09-15T22:01:22.723Z,27.30
2022-09-15T22:03:56.917Z,27.30
2022-09-15T22:06:31.510Z,27.20
2022-09-15T22:09:04.318Z,27.20
2022-09-15T22:11:32.248Z,27.20
2022-09-15T22:14:01.745Z,27.20
2022-09-15T22:16:29.210Z,27.20
2022-09-15T22:18:56.498Z,27.20
2022-09-15T22:21:26.454Z,27.10
2022-09-15T22:23:58.399Z,27.10
2022-09-15T22:26:28.225Z,27.00
2022-09-15T22:28:55.987Z,27.00
2022-09-15T22:31:24.196Z,26.90
2022-09-15T22:33:51.897Z,26.90
2022-09-15T22:36:24.062Z,27.00
2022-09-15T22:38:54.357Z,27.00
2022-09-15T22:41:25.212Z,26.90
2022-09-15T22:43:52.241Z,26.90
2022-09-15T22:46:19.678Z,26.90
2022-09-15T22:48:46.891Z,26.80
2022-09-15T22:51:14.818Z,26.80
2022-09-15T22:53:42.529Z,26.80
2022-09-15T22:56:19.883Z,26.80
2022-09-15T22:58:48.879Z,26.80
2022-09-15T23:01:22.112Z,26.80
2022-09-15T23:03:53.590Z,26.80
2022-09-15T23:06:21.819Z,26.80
2022-09-15T23:08:53.717Z,26.80
2022-09-15T23:11:21.590Z,26.80
2022-09-15T23:13:49.385Z,26.80
2022-09-15T23:16:17.258Z,26.80
2022-09-15T23:18:44.511Z,26.80
2022-09-15T23:21:12.675Z,26.80
2022-09-15T23:23:41.481Z,26.80
2022-09-15T23:26:11.340Z,26.80
2022-09-15T23:28:39.810Z,26.80
2022-09-15T23:31:07.427Z,26.70
2022-09-15T23:33:34.708Z,26.70
2022-09-15T23:36:04.117Z,26.70
2022-09-15T23:38:34.412Z,26.70
2022-09-15T23:41:01.404Z,26.70
2022-09-15T23:43:28.316Z,26.70
2022-09-15T23:45:55.263Z,26.70
2022-09-15T23:48:23.357Z,26.70
2022-09-15T23:50:50.436Z,26.70
2022-09-15T23:53:18.345Z,26.70
2022-09-15T23:55:46.286Z,26.60
2022-09-15T23:58:13.577Z,26.60
